East Lansdowne, Pennsylvania
Current Conditions -  °F | °C
As of 1:54 AM on Wednesday 26 Nov 2014 (Local Time) from KPHL Reporting Station
Overcast Overcast  
Wind Chill: 46°   Ceiling: 11000
Heat Index: 46°   Visibility: 10mi
Dew Point: 37°   Wind: 3mph
Humidity: 71%   Direction: 360°N
Pressure: 30.19"   Gusts: NA
Location:  39.9372°N, 75.2636°W
Report Text: KPHL 260654Z 36003KT 10SM BKN110 OVC140 08/03 A3019 RMK AO2 SLP224 T00780028 $
Loading
Personal Weather Stations






























Interactive Weather Map New forecast layout! Learn more

10-Day Weather Forecast

Advertisements
Track Severe Weather on mobile